Time;durP1;ratioP1;P1;durP2;ratioP2;P2;SDS_P1;SDS_P2;PMS_P1;PMS_P2;Temp;Humidity;BMP_temperature;BMP_pressure;BME280_temperature;BME280_humidity;BME280_pressure;Samples;Min_cycle;Max_cycle;Signal;HPM_P1;HPM_P2
2023/01/24 00:00:51;;;;;;;12.65;9.60;;;6.40;99.90;;;;;;5051857;28;20185;-63
2023/01/24 00:03:17;;;;;;;11.90;9.90;;;6.40;99.90;;;;;;5051998;28;20561;-63
2023/01/24 00:05:45;;;;;;;12.77;10.93;;;6.40;99.90;;;;;;5050452;28;20288;-63
2023/01/24 00:08:12;;;;;;;10.23;9.23;;;6.40;99.90;;;;;;5052981;28;20522;-63
2023/01/24 00:10:38;;;;;;;11.07;9.07;;;6.50;99.90;;;;;;5052064;28;20245;-63
2023/01/24 00:13:04;;;;;;;10.40;9.23;;;6.50;99.90;;;;;;5051435;28;20416;-63
2023/01/24 00:15:30;;;;;;;10.30;8.82;;;6.50;99.90;;;;;;5051723;28;20540;-63
2023/01/24 00:17:56;;;;;;;10.27;9.10;;;6.50;99.90;;;;;;5052486;28;20187;-63
2023/01/24 00:20:22;;;;;;;8.70;7.80;;;6.50;99.90;;;;;;5050646;28;20416;-63
2023/01/24 00:22:48;;;;;;;8.90;8.00;;;6.50;99.90;;;;;;5052482;28;20500;-63
2023/01/24 00:25:13;;;;;;;9.70;7.20;;;6.40;99.90;;;;;;5052399;28;20176;-62
2023/01/24 00:27:39;;;;;;;8.90;8.00;;;6.50;99.90;;;;;;5051529;28;20189;-62
2023/01/24 00:30:05;;;;;;;9.27;8.37;;;6.40;99.90;;;;;;5052063;28;20171;-63
2023/01/24 00:32:32;;;;;;;9.38;8.38;;;6.50;99.90;;;;;;5050304;28;20539;-63
2023/01/24 00:34:58;;;;;;;10.60;9.50;;;6.60;99.90;;;;;;5051182;28;20190;-63
2023/01/24 00:37:24;;;;;;;9.10;8.00;;;6.60;99.90;;;;;;5051567;28;20391;-63
2023/01/24 00:39:50;;;;;;;8.70;7.82;;;6.60;99.90;;;;;;5052221;28;20771;-63
2023/01/24 00:42:16;;;;;;;9.43;8.27;;;6.60;99.90;;;;;;5052367;28;20178;-63
2023/01/24 00:44:41;;;;;;;8.30;7.40;;;6.60;99.90;;;;;;5052491;28;20218;-63
2023/01/24 00:47:07;;;;;;;7.87;7.07;;;6.50;99.90;;;;;;5055529;28;20208;-63
2023/01/24 00:49:33;;;;;;;8.10;7.30;;;6.50;99.90;;;;;;5055752;28;20627;-63
2023/01/24 00:51:58;;;;;;;9.10;7.30;;;6.40;99.90;;;;;;5053680;28;20252;-63
2023/01/24 00:54:24;;;;;;;7.30;6.60;;;6.40;99.90;;;;;;5055526;28;20182;-63
2023/01/24 00:56:50;;;;;;;7.40;6.70;;;6.40;99.90;;;;;;5056438;28;20176;-63
2023/01/24 00:59:15;;;;;;;6.83;6.23;;;6.40;99.90;;;;;;5056097;28;20171;-62
2023/01/24 01:01:41;;;;;;;8.00;7.20;;;6.40;99.90;;;;;;5055727;28;20170;-63
2023/01/24 01:04:07;;;;;;;7.60;6.87;;;6.40;99.90;;;;;;5054776;28;20240;-62
2023/01/24 01:06:32;;;;;;;9.73;7.87;;;6.40;99.90;;;;;;5054105;28;20630;-63
2023/01/24 01:08:58;;;;;;;7.17;6.47;;;6.30;99.90;;;;;;5054859;28;20190;-62
2023/01/24 01:11:24;;;;;;;7.43;6.70;;;6.20;99.90;;;;;;5055278;28;20420;-63
2023/01/24 01:13:53;;;;;;;7.37;6.77;;;6.20;99.90;;;;;;5054687;28;20391;-62
2023/01/24 01:16:19;;;;;;;8.05;7.25;;;6.20;99.90;;;;;;5056141;28;20175;-62
2023/01/24 01:18:50;;;;;;;7.65;6.90;;;6.20;99.90;;;;;;5055756;28;20178;-63
2023/01/24 01:21:17;;;;;;;7.68;6.65;;;6.10;99.90;;;;;;5055710;28;20185;-63
2023/01/24 01:23:44;;;;;;;7.90;7.15;;;5.90;99.90;;;;;;5054079;28;20292;-62
2023/01/24 01:26:15;;;;;;;7.68;6.97;;;5.90;99.90;;;;;;5055665;28;20189;-63
2023/01/24 01:28:40;;;;;;;7.85;7.15;;;5.90;99.90;;;;;;5053602;28;20622;-63
2023/01/24 01:31:06;;;;;;;8.40;7.50;;;6.00;99.90;;;;;;5055862;28;20221;-63
2023/01/24 01:33:32;;;;;;;6.63;6.03;;;6.10;99.90;;;;;;5052221;28;20250;-63
2023/01/24 01:35:57;;;;;;;8.10;6.90;;;6.20;99.90;;;;;;5055286;28;20179;-63
2023/01/24 01:38:25;;;;;;;7.77;6.97;;;6.20;99.90;;;;;;5055001;28;20197;-63
2023/01/24 01:40:51;;;;;;;7.13;6.40;;;6.30;99.90;;;;;;5054039;28;20566;-63
2023/01/24 01:43:19;;;;;;;6.73;6.13;;;6.30;99.90;;;;;;5055054;28;20218;-63
2023/01/24 01:45:48;;;;;;;7.47;6.67;;;6.40;99.90;;;;;;5052780;28;20437;-63
2023/01/24 01:48:28;;;;;;;8.20;7.20;;;6.40;99.90;;;;;;5053925;28;20457;-63
2023/01/24 01:51:01;;;;;;;7.50;6.80;;;6.50;99.90;;;;;;5055588;28;20458;-63
2023/01/24 01:53:31;;;;;;;7.15;6.55;;;6.30;99.90;;;;;;5054592;28;20384;-63
2023/01/24 01:56:04;;;;;;;10.02;6.60;;;6.20;99.90;;;;;;5053648;28;20185;-63
2023/01/24 01:58:30;;;;;;;6.78;6.10;;;6.20;99.90;;;;;;5054530;28;20170;-63
2023/01/24 02:00:56;;;;;;;6.82;6.22;;;6.20;99.90;;;;;;5055046;28;20618;-63
2023/01/24 02:03:40;;;;;;;6.70;6.10;;;6.10;99.90;;;;;;5053422;28;20297;-63
2023/01/24 02:06:25;;;;;;;6.65;6.05;;;6.20;99.90;;;;;;5054691;28;20602;-62
2023/01/24 02:08:52;;;;;;;7.53;6.72;;;6.20;99.90;;;;;;5054176;28;20170;-63
2023/01/24 02:16:47;;;;;;;7.70;7.00;;;6.20;99.90;;;;;;5053565;28;20170;-63
2023/01/24 02:19:21;;;;;;;7.00;6.30;;;6.30;99.90;;;;;;5054232;28;20232;-63
2023/01/24 02:21:52;;;;;;;7.35;6.60;;;6.30;99.90;;;;;;5052567;28;20182;-63
2023/01/24 02:24:28;;;;;;;8.50;7.70;;;6.30;99.90;;;;;;5046285;28;20667;-63
2023/01/24 02:26:54;;;;;;;7.53;6.77;;;6.30;99.90;;;;;;5033287;28;20766;-63
2023/01/24 02:29:20;;;;;;;7.20;6.50;;;6.20;99.90;;;;;;5034629;28;20405;-63
2023/01/24 02:31:56;;;;;;;8.10;6.43;;;6.20;99.90;;;;;;5053859;28;20179;-63
2023/01/24 02:34:22;;;;;;;7.78;7.07;;;6.30;99.90;;;;;;5052668;28;20504;-63
2023/01/24 02:37:00;;;;;;;7.65;6.95;;;6.40;99.90;;;;;;5053782;28;20231;-63
2023/01/24 02:39:30;;;;;;;6.82;6.13;;;6.40;99.90;;;;;;5052665;28;20529;-63
2023/01/24 02:42:26;;;;;;;7.10;6.40;;;6.30;99.90;;;;;;5054510;28;20220;-63
2023/01/24 02:45:08;;;;;;;7.18;6.47;;;6.30;99.90;;;;;;5053450;28;20268;-63
2023/01/24 02:47:43;;;;;;;7.17;6.47;;;6.30;99.90;;;;;;5032904;28;20269;-63
2023/01/24 02:50:09;;;;;;;8.88;6.65;;;6.30;99.90;;;;;;5054374;28;20446;-63
2023/01/24 02:55:19;;;;;;;7.55;6.43;;;6.20;99.90;;;;;;5052887;28;20181;-63
2023/01/24 03:00:29;;;;;;;7.38;6.63;;;6.30;99.90;;;;;;5053684;28;20166;-63
2023/01/24 03:02:55;;;;;;;7.17;6.47;;;6.30;99.90;;;;;;5053866;28;20662;-63
2023/01/24 03:05:21;;;;;;;6.70;6.10;;;6.20;99.90;;;;;;5053013;28;20183;-63
2023/01/24 03:07:47;;;;;;;7.20;6.03;;;6.30;99.90;;;;;;5052745;28;20560;-63
2023/01/24 03:10:17;;;;;;;7.70;6.00;;;6.20;99.90;;;;;;5053455;28;20171;-63
2023/01/24 03:34:48;;;;;;;7.35;6.65;;;6.20;99.90;;;;;;5052468;28;20634;-63
2023/01/24 03:37:16;;;;;;;8.68;6.45;;;6.20;99.90;;;;;;5050977;28;20220;-63
2023/01/24 03:39:58;;;;;;;7.00;6.32;;;6.20;99.90;;;;;;5052475;28;20180;-63
2023/01/24 03:42:26;;;;;;;7.47;6.50;;;6.20;99.90;;;;;;5051000;28;20222;-63
2023/01/24 03:44:52;;;;;;;8.18;7.05;;;6.30;99.90;;;;;;5049908;28;20562;-62
2023/01/24 03:47:17;;;;;;;7.03;6.03;;;6.20;99.90;;;;;;5050172;28;20190;-61
2023/01/24 03:52:28;;;;;;;6.40;5.80;;;6.20;99.90;;;;;;5052579;28;20245;-64
2023/01/24 03:54:58;;;;;;;6.88;6.18;;;6.10;99.90;;;;;;5050218;28;20652;-62
2023/01/24 03:57:28;;;;;;;9.15;8.05;;;6.00;99.90;;;;;;5050826;28;20544;-62
2023/01/24 03:59:54;;;;;;;8.50;7.15;;;6.10;99.90;;;;;;5051688;28;20185;-63
2023/01/24 04:02:20;;;;;;;8.07;7.20;;;6.20;99.90;;;;;;5052335;28;20162;-63
2023/01/24 04:07:31;;;;;;;8.18;6.70;;;6.20;99.90;;;;;;5051952;28;20169;-66
2023/01/24 04:09:59;;;;;;;7.60;6.80;;;6.10;99.90;;;;;;5049758;28;20190;-63
2023/01/24 04:12:25;;;;;;;7.35;6.55;;;6.10;99.90;;;;;;5052221;28;20758;-63
2023/01/24 04:14:51;;;;;;;8.37;6.63;;;6.10;99.90;;;;;;5050497;28;20181;-63
2023/01/24 04:17:17;;;;;;;7.80;7.07;;;6.20;99.90;;;;;;5051172;28;20416;-63
2023/01/24 04:19:42;;;;;;;8.63;7.83;;;6.20;99.90;;;;;;5051421;28;20191;-63
2023/01/24 04:22:08;;;;;;;10.00;7.57;;;6.20;99.90;;;;;;5050775;28;20178;-63
2023/01/24 04:24:34;;;;;;;8.17;7.20;;;6.30;99.90;;;;;;5051308;28;20206;-67
2023/01/24 04:26:59;;;;;;;8.63;7.73;;;6.30;99.90;;;;;;5050869;28;20436;-63
2023/01/24 04:29:25;;;;;;;7.43;6.80;;;6.30;99.90;;;;;;5051807;28;20219;-63
2023/01/24 04:31:53;;;;;;;7.93;6.90;;;6.30;99.90;;;;;;5049923;28;20181;-64
2023/01/24 04:34:19;;;;;;;7.63;6.83;;;6.20;99.90;;;;;;5052312;28;20214;-63
2023/01/24 04:36:44;;;;;;;8.03;6.97;;;6.20;99.90;;;;;;5051202;28;20448;-63
2023/01/24 04:39:10;;;;;;;8.87;7.97;;;6.30;99.90;;;;;;5050751;28;20191;-63
2023/01/24 04:41:36;;;;;;;10.30;9.30;;;6.40;99.90;;;;;;5050859;28;20229;-65
2023/01/24 04:44:02;;;;;;;7.90;7.10;;;6.40;99.90;;;;;;5051861;28;20487;-64
2023/01/24 04:46:28;;;;;;;10.17;9.27;;;6.30;99.90;;;;;;5052012;28;20173;-63
2023/01/24 04:48:54;;;;;;;10.70;9.67;;;6.30;99.90;;;;;;5033251;28;20182;-63
2023/01/24 04:51:19;;;;;;;8.83;8.03;;;6.40;99.90;;;;;;5051897;28;20416;-63
2023/01/24 04:53:45;;;;;;;7.83;7.00;;;6.40;99.90;;;;;;5049948;28;20953;-64
2023/01/24 04:56:11;;;;;;;8.90;8.10;;;6.40;99.90;;;;;;5047665;28;20411;-63
2023/01/24 04:58:37;;;;;;;8.30;7.50;;;6.50;99.90;;;;;;5047520;28;20185;-64
2023/01/24 05:01:02;;;;;;;8.80;7.83;;;6.50;99.90;;;;;;5046474;28;20786;-64
2023/01/24 05:03:28;;;;;;;10.50;8.30;;;6.50;99.90;;;;;;5051432;28;20210;-67
2023/01/24 05:05:54;;;;;;;8.40;7.60;;;6.50;99.90;;;;;;5050727;28;20670;-64
2023/01/24 05:08:20;;;;;;;8.17;7.37;;;6.40;99.90;;;;;;5036480;28;20194;-62
2023/01/24 05:10:46;;;;;;;9.38;8.48;;;6.20;99.90;;;;;;5046909;28;20417;-63
2023/01/24 05:13:12;;;;;;;9.70;8.63;;;6.30;99.90;;;;;;5049179;28;20598;-64
2023/01/24 05:15:38;;;;;;;8.97;8.07;;;6.30;99.90;;;;;;5050706;28;20175;-64
2023/01/24 05:18:04;;;;;;;9.80;8.80;;;6.30;99.90;;;;;;5051674;28;20413;-64
2023/01/24 05:20:30;;;;;;;10.40;8.80;;;6.20;99.90;;;;;;5051596;28;20170;-64
2023/01/24 05:22:56;;;;;;;10.30;9.02;;;6.00;99.90;;;;;;5050263;28;20202;-63
2023/01/24 05:25:22;;;;;;;8.50;7.60;;;6.00;99.90;;;;;;5043947;28;20673;-63
2023/01/24 05:27:48;;;;;;;10.20;8.50;;;6.10;99.90;;;;;;5048160;28;20261;-63
2023/01/24 05:30:14;;;;;;;11.83;8.77;;;6.10;99.90;;;;;;5051520;28;20431;-64
2023/01/24 05:32:40;;;;;;;10.68;9.68;;;6.10;99.90;;;;;;5052848;28;20194;-62
2023/01/24 05:35:07;;;;;;;10.03;9.03;;;6.20;99.90;;;;;;5053890;28;20178;-63
2023/01/24 05:37:35;;;;;;;8.82;7.97;;;6.20;99.90;;;;;;5055080;28;20395;-63
2023/01/24 05:40:01;;;;;;;9.63;8.63;;;6.30;99.90;;;;;;5054667;28;20194;-63
2023/01/24 05:42:27;;;;;;;9.70;8.70;;;6.30;99.90;;;;;;5055382;28;20398;-63
2023/01/24 05:44:52;;;;;;;9.40;8.60;;;6.30;99.90;;;;;;5054602;28;20554;-62
2023/01/24 05:47:18;;;;;;;8.73;7.83;;;6.30;99.90;;;;;;5054765;28;20198;-62
2023/01/24 05:49:44;;;;;;;9.03;7.80;;;6.40;99.90;;;;;;5053669;28;20213;-63
2023/01/24 05:52:09;;;;;;;11.23;10.20;;;6.40;99.90;;;;;;5054536;28;20170;-62
2023/01/24 05:54:35;;;;;;;11.17;8.93;;;6.40;99.90;;;;;;5048498;28;20213;-66
2023/01/24 05:57:01;;;;;;;9.30;8.40;;;6.50;99.90;;;;;;5051133;28;20179;-62
2023/01/24 05:59:27;;;;;;;9.13;8.20;;;6.40;99.90;;;;;;5041314;28;20186;-63
2023/01/24 06:01:52;;;;;;;9.50;8.60;;;6.40;99.90;;;;;;5042892;28;20194;-63
2023/01/24 06:04:18;;;;;;;10.63;8.57;;;6.40;99.90;;;;;;5045397;28;20226;-63
2023/01/24 06:06:44;;;;;;;10.20;9.30;;;6.50;99.90;;;;;;5047936;28;20228;-64
2023/01/24 06:09:09;;;;;;;9.40;8.50;;;6.40;99.90;;;;;;5041221;28;20209;-63
2023/01/24 06:11:35;;;;;;;9.10;8.20;;;6.30;99.90;;;;;;5042559;28;20618;-64
2023/01/24 06:14:01;;;;;;;10.40;9.50;;;6.30;99.90;;;;;;5054723;28;20220;-63
2023/01/24 06:16:27;;;;;;;11.37;10.27;;;6.30;99.90;;;;;;5045741;28;20186;-63
2023/01/24 06:18:54;;;;;;;10.80;9.70;;;6.00;99.90;;;;;;5049805;28;20412;-63
2023/01/24 06:21:45;;;;;;;9.48;7.78;;;5.80;99.90;;;;;;5054482;28;20402;-63
2023/01/24 06:24:21;;;;;;;8.85;7.95;;;5.90;99.90;;;;;;5053274;28;20206;-66
2023/01/24 06:26:49;;;;;;;10.07;9.07;;;6.00;99.90;;;;;;5034143;28;20305;-64
2023/01/24 06:29:16;;;;;;;10.75;9.63;;;6.00;99.90;;;;;;5036885;28;20244;-63
2023/01/24 06:32:08;;;;;;;11.05;8.73;;;6.00;99.90;;;;;;5049433;28;20581;-64
2023/01/24 06:34:40;;;;;;;11.10;9.30;;;6.10;99.90;;;;;;5042706;28;20227;-62
2023/01/24 06:37:08;;;;;;;11.10;8.90;;;6.10;99.90;;;;;;5039550;28;20840;-62
2023/01/24 06:39:36;;;;;;;12.57;10.13;;;6.20;99.90;;;;;;5049038;28;20277;-63
2023/01/24 06:42:02;;;;;;;9.45;7.97;;;6.20;99.90;;;;;;5055094;28;20476;-63
2023/01/24 06:44:28;;;;;;;11.90;10.80;;;6.20;99.90;;;;;;5053965;28;20269;-63
2023/01/24 06:46:53;;;;;;;11.17;8.37;;;6.10;99.90;;;;;;5044652;28;20187;-63
2023/01/24 06:49:19;;;;;;;9.47;7.70;;;6.10;99.90;;;;;;5033694;28;20435;-64
2023/01/24 06:51:54;;;;;;;12.63;11.43;;;6.10;99.90;;;;;;5043826;28;20349;-63
2023/01/24 06:54:19;;;;;;;12.10;9.80;;;6.20;99.90;;;;;;5035933;28;20638;-64
2023/01/24 06:56:45;;;;;;;14.10;9.70;;;6.30;99.90;;;;;;5038712;28;20194;-63
2023/01/24 06:59:11;;;;;;;12.43;10.00;;;6.30;99.90;;;;;;5037230;28;20429;-67
2023/01/24 07:01:36;;;;;;;11.03;9.20;;;6.40;99.90;;;;;;5055790;28;20177;-66
2023/01/24 07:04:02;;;;;;;10.20;8.80;;;6.20;99.90;;;;;;5073458;28;20216;-65
2023/01/24 07:06:28;;;;;;;10.90;8.70;;;6.20;99.90;;;;;;5062640;28;20179;-63
2023/01/24 07:08:53;;;;;;;9.77;8.10;;;6.30;99.90;;;;;;5035549;28;20183;-63
2023/01/24 07:11:19;;;;;;;10.00;8.83;;;6.30;99.90;;;;;;5034305;28;20620;-63
2023/01/24 07:13:45;;;;;;;28.33;12.57;;;6.40;99.90;;;;;;5050851;28;20224;-66
2023/01/24 07:16:10;;;;;;;12.90;11.60;;;6.90;99.90;;;;;;5053695;28;20395;-66
2023/01/24 07:18:37;;;;;;;13.67;11.97;;;7.70;99.90;;;;;;5053363;28;20204;-66
2023/01/24 07:21:07;;;;;;;12.40;11.30;;;8.60;99.90;;;;;;5052886;28;20195;-66
2023/01/24 07:23:34;;;;;;;12.40;11.20;;;9.30;99.90;;;;;;5053605;28;20454;-66
2023/01/24 07:26:00;;;;;;;11.50;10.40;;;9.80;99.90;;;;;;5052026;28;20447;-67
2023/01/24 07:28:26;;;;;;;12.00;10.77;;;10.30;99.90;;;;;;5056201;28;20446;-66
2023/01/24 07:30:52;;;;;;;13.13;11.93;;;10.70;99.90;;;;;;5053216;28;20413;-66
2023/01/24 07:33:18;;;;;;;12.63;10.07;;;11.10;99.90;;;;;;5053652;28;20175;-66
2023/01/24 07:35:44;;;;;;;10.20;9.20;;;11.30;99.90;;;;;;5052403;28;20394;-67
2023/01/24 07:38:11;;;;;;;11.33;10.30;;;11.60;97.10;;;;;;5050722;28;20729;-62
2023/01/24 07:40:38;;;;;;;10.17;9.23;;;11.70;93.00;;;;;;5051433;28;20232;-63
2023/01/24 07:43:04;;;;;;;9.83;8.97;;;11.30;87.30;;;;;;5052263;28;20487;-63
2023/01/24 07:45:31;;;;;;;10.17;9.17;;;10.60;84.30;;;;;;5053101;28;20496;-63
2023/01/24 07:47:58;;;;;;;10.80;9.80;;;9.80;90.00;;;;;;5053136;28;20420;-63
2023/01/24 07:50:25;;;;;;;9.27;8.37;;;9.40;90.70;;;;;;5052777;28;20407;-63
2023/01/24 07:52:55;;;;;;;9.90;8.50;;;9.20;91.40;;;;;;5069813;28;20418;-63
2023/01/24 07:55:22;;;;;;;13.10;11.90;;;8.80;92.50;;;;;;5066403;28;20424;-63
2023/01/24 07:57:48;;;;;;;9.90;9.00;;;8.50;93.50;;;;;;5052419;28;20416;-63
2023/01/24 08:00:15;;;;;;;9.73;8.53;;;8.10;94.90;;;;;;5052875;28;20743;-63
2023/01/24 08:02:42;;;;;;;9.10;8.30;;;7.90;95.30;;;;;;5052808;28;20485;-64
2023/01/24 08:05:08;;;;;;;10.37;9.43;;;7.60;96.50;;;;;;5032233;28;20882;-66
2023/01/24 08:07:33;;;;;;;9.50;8.50;;;7.40;99.50;;;;;;5051665;28;20505;-63
2023/01/24 08:09:59;;;;;;;9.23;7.50;;;7.20;99.20;;;;;;5051808;28;20428;-63
2023/01/24 08:12:25;;;;;;;9.10;8.20;;;6.90;99.90;;;;;;5052613;28;20175;-63
2023/01/24 08:14:50;;;;;;;11.80;10.70;;;6.80;99.90;;;;;;5052028;28;20205;-63
2023/01/24 08:17:16;;;;;;;9.57;8.67;;;6.70;99.90;;;;;;5052856;28;20223;-63
2023/01/24 08:19:42;;;;;;;10.98;9.77;;;6.60;99.90;;;;;;5052352;28;20281;-64
2023/01/24 08:22:08;;;;;;;10.07;8.90;;;6.40;99.90;;;;;;5051916;28;20258;-63
2023/01/24 08:24:34;;;;;;;11.20;9.27;;;6.20;99.90;;;;;;5052376;28;20211;-63
2023/01/24 08:27:01;;;;;;;12.60;11.40;;;6.30;99.90;;;;;;5051954;28;20178;-63
2023/01/24 08:29:27;;;;;;;10.07;8.55;;;6.10;99.90;;;;;;5052470;28;20444;-63
2023/01/24 08:31:53;;;;;;;10.82;9.35;;;6.10;99.90;;;;;;5050407;28;20170;-63
2023/01/24 08:34:19;;;;;;;9.53;8.53;;;6.10;99.90;;;;;;5049642;28;20547;-65
2023/01/24 08:36:44;;;;;;;11.40;10.30;;;6.20;99.90;;;;;;5042916;28;20435;-63
2023/01/24 08:39:11;;;;;;;11.07;9.90;;;6.10;99.90;;;;;;5052024;28;20189;-63
2023/01/24 08:41:37;;;;;;;10.37;9.27;;;6.00;99.90;;;;;;5051559;28;20225;-66
2023/01/24 08:44:04;;;;;;;11.13;9.20;;;6.00;99.90;;;;;;5049840;28;20953;-63
2023/01/24 08:46:31;;;;;;;10.88;9.73;;;6.00;99.90;;;;;;5051826;28;20207;-63
2023/01/24 08:48:57;;;;;;;11.38;9.98;;;6.10;99.90;;;;;;5051617;28;20261;-63
2023/01/24 08:51:24;;;;;;;10.95;9.75;;;6.10;99.90;;;;;;5051012;28;20574;-63
2023/01/24 08:53:49;;;;;;;11.45;9.00;;;6.10;99.90;;;;;;5051533;28;20217;-64
2023/01/24 08:56:15;;;;;;;9.90;8.90;;;6.20;99.90;;;;;;5052139;28;20649;-63
2023/01/24 08:58:41;;;;;;;10.50;9.43;;;6.20;99.90;;;;;;5051587;28;20602;-63
2023/01/24 09:01:08;;;;;;;9.67;8.67;;;6.10;99.90;;;;;;5049504;28;20507;-64
2023/01/24 09:03:40;;;;;;;10.57;9.48;;;6.10;99.90;;;;;;5051549;28;20626;-64
2023/01/24 09:06:06;;;;;;;11.95;10.02;;;6.00;99.90;;;;;;5052412;28;20231;-63
2023/01/24 09:08:32;;;;;;;11.38;10.20;;;6.10;99.90;;;;;;5053235;28;20183;-64
2023/01/24 09:10:59;;;;;;;10.43;9.32;;;6.10;99.90;;;;;;5054393;28;20583;-64
2023/01/24 09:13:25;;;;;;;14.43;10.70;;;6.20;99.90;;;;;;5054963;28;20183;-63
2023/01/24 09:15:51;;;;;;;10.90;9.80;;;6.10;99.90;;;;;;5053013;28;20190;-64
2023/01/24 09:18:17;;;;;;;10.53;9.40;;;5.90;99.90;;;;;;5053510;28;20189;-64
2023/01/24 09:20:43;;;;;;;10.53;9.53;;;6.00;99.90;;;;;;5054156;28;20399;-64
2023/01/24 09:23:14;;;;;;;11.60;10.38;;;6.20;99.90;;;;;;5053414;28;20276;-64
2023/01/24 09:25:41;;;;;;;10.27;9.27;;;6.30;99.90;;;;;;5055384;28;20201;-63
2023/01/24 09:28:07;;;;;;;10.85;9.00;;;6.30;99.90;;;;;;5054900;28;20539;-63
2023/01/24 09:30:35;;;;;;;9.63;8.73;;;6.40;99.90;;;;;;5055626;28;20171;-63
2023/01/24 09:33:05;;;;;;;10.33;9.23;;;6.40;99.90;;;;;;5053620;28;20420;-63
2023/01/24 09:35:30;;;;;;;12.07;10.88;;;6.40;99.90;;;;;;5054335;28;20823;-63
2023/01/24 09:37:56;;;;;;;11.20;10.10;;;6.50;99.90;;;;;;5054949;28;20174;-63
2023/01/24 09:40:43;;;;;;;10.47;8.70;;;6.40;99.90;;;;;;5055337;28;20226;-63
2023/01/24 09:43:15;;;;;;;10.63;9.57;;;6.20;99.90;;;;;;5052282;28;20440;-63
2023/01/24 09:45:52;;;;;;;13.50;10.85;;;6.20;99.90;;;;;;5055313;28;20178;-63
2023/01/24 09:48:20;;;;;;;11.70;9.55;;;6.10;99.90;;;;;;5053141;28;20186;-63
2023/01/24 09:50:51;;;;;;;12.07;10.95;;;6.10;99.90;;;;;;5055207;28;20259;-63
2023/01/24 09:53:29;;;;;;;11.25;10.05;;;6.30;99.90;;;;;;5055339;28;20165;-63
2023/01/24 09:55:57;;;;;;;11.05;9.02;;;6.20;99.90;;;;;;5053385;28;20244;-63
2023/01/24 09:58:33;;;;;;;10.23;8.68;;;6.20;99.90;;;;;;5054960;28;20198;-63
2023/01/24 10:01:11;;;;;;;10.85;8.90;;;6.20;99.90;;;;;;5054751;28;20558;-63
2023/01/24 10:03:38;;;;;;;10.90;9.80;;;6.20;99.90;;;;;;5055162;28;20538;-63
2023/01/24 10:06:09;;;;;;;9.97;9.00;;;6.10;99.90;;;;;;5054289;28;20544;-63
2023/01/24 10:08:58;;;;;;;10.70;9.57;;;6.00;99.90;;;;;;5054616;28;20893;-63
2023/01/24 10:11:54;;;;;;;10.70;9.63;;;6.20;99.90;;;;;;5052738;28;20671;-63
2023/01/24 10:14:49;;;;;;;11.60;10.40;;;6.30;99.90;;;;;;5054915;28;20377;-63
2023/01/24 10:17:27;;;;;;;10.07;9.07;;;6.30;99.90;;;;;;5054257;28;20492;-63
2023/01/24 10:20:15;;;;;;;10.13;9.23;;;6.50;99.90;;;;;;5053005;28;20519;-63
2023/01/24 10:22:58;;;;;;;10.60;9.60;;;6.30;99.90;;;;;;5054479;28;20167;-63
2023/01/24 10:25:30;;;;;;;12.00;10.80;;;6.30;99.90;;;;;;5054354;28;20536;-63
2023/01/24 10:28:01;;;;;;;11.63;10.43;;;6.30;99.90;;;;;;5053919;28;20189;-66
2023/01/24 10:30:47;;;;;;;10.87;9.00;;;6.30;99.90;;;;;;5054374;28;20201;-63
2023/01/24 10:33:19;;;;;;;9.70;8.80;;;6.40;99.90;;;;;;5051876;28;20394;-63
2023/01/24 10:36:04;;;;;;;10.50;8.90;;;6.50;99.90;;;;;;5053115;28;20186;-63
2023/01/24 10:38:30;;;;;;;12.60;10.52;;;6.50;99.90;;;;;;5054349;28;20422;-63
2023/01/24 10:41:11;;;;;;;12.00;10.70;;;6.60;99.90;;;;;;5052235;28;20576;-63
2023/01/24 10:43:38;;;;;;;12.37;11.23;;;6.60;99.90;;;;;;5053243;28;20211;-63
2023/01/24 10:46:16;;;;;;;10.30;9.40;;;6.50;99.90;;;;;;5053325;28;20897;-63
2023/01/24 10:48:48;;;;;;;10.27;9.20;;;6.40;99.90;;;;;;5054257;28;20397;-63
2023/01/24 10:51:21;;;;;;;10.73;9.73;;;6.40;99.90;;;;;;5051699;28;20431;-64
2023/01/24 10:53:48;;;;;;;11.20;10.17;;;6.40;99.90;;;;;;5053121;28;20439;-63
2023/01/24 10:56:20;;;;;;;10.87;9.77;;;6.50;99.90;;;;;;5053454;28;20384;-63
2023/01/24 10:59:02;;;;;;;11.97;10.60;;;6.50;99.90;;;;;;5052937;28;20459;-63
2023/01/24 11:01:37;;;;;;;10.83;9.73;;;6.50;99.90;;;;;;5053743;28;20978;-64
2023/01/24 11:04:15;;;;;;;10.80;9.70;;;6.60;99.90;;;;;;5052969;28;20441;-63
2023/01/24 11:06:45;;;;;;;11.90;10.80;;;6.60;99.90;;;;;;5053832;28;20394;-63
2023/01/24 11:09:14;;;;;;;9.97;8.43;;;6.60;99.90;;;;;;5053446;28;20406;-63
2023/01/24 11:11:46;;;;;;;10.10;9.10;;;6.60;99.90;;;;;;5053481;28;20939;-63
2023/01/24 11:14:20;;;;;;;10.63;9.43;;;6.60;99.90;;;;;;5053155;28;20198;-63
2023/01/24 11:16:48;;;;;;;10.53;9.50;;;6.70;99.90;;;;;;5053645;28;20167;-63
2023/01/24 11:19:26;;;;;;;9.63;8.53;;;6.70;99.90;;;;;;5052894;28;20711;-63
2023/01/24 11:21:55;;;;;;;11.27;10.17;;;6.70;99.90;;;;;;5050187;28;20437;-63
2023/01/24 11:24:24;;;;;;;10.20;8.93;;;6.70;99.90;;;;;;5051203;28;20469;-64
2023/01/24 11:26:55;;;;;;;11.47;10.37;;;6.90;99.90;;;;;;5053361;28;20411;-64
2023/01/24 11:29:21;;;;;;;10.97;9.87;;;6.80;99.90;;;;;;5052877;28;20392;-64
2023/01/24 11:31:54;;;;;;;9.87;8.97;;;6.90;99.90;;;;;;5053328;28;20410;-63
2023/01/24 11:34:38;;;;;;;10.90;9.90;;;6.90;99.90;;;;;;5053059;28;20417;-63
2023/01/24 11:37:22;;;;;;;9.50;8.50;;;6.90;99.90;;;;;;5052934;28;20402;-64
2023/01/24 11:40:01;;;;;;;10.90;9.73;;;6.90;99.90;;;;;;5052021;28;20408;-63
2023/01/24 11:42:45;;;;;;;10.90;9.43;;;7.00;99.90;;;;;;5053139;28;20412;-64
2023/01/24 11:45:17;;;;;;;9.63;8.73;;;6.80;99.90;;;;;;5049501;28;20459;-64
2023/01/24 11:47:50;;;;;;;9.73;8.60;;;6.90;99.90;;;;;;5052878;28;20503;-63
2023/01/24 11:50:33;;;;;;;9.30;8.40;;;6.80;99.90;;;;;;5052026;28;20898;-64
2023/01/24 11:53:08;;;;;;;9.75;8.85;;;6.60;99.90;;;;;;5052173;28;20784;-64
2023/01/24 11:55:59;;;;;;;9.90;8.90;;;6.70;99.90;;;;;;5051817;28;20178;-63
2023/01/24 11:58:48;;;;;;;8.70;7.90;;;6.70;99.90;;;;;;5052826;28;20384;-63
2023/01/24 12:01:59;;;;;;;11.00;10.00;;;6.70;99.90;;;;;;5050990;28;20418;-63
2023/01/24 12:04:42;;;;;;;10.60;9.60;;;6.70;99.90;;;;;;5046995;28;20518;-64
2023/01/24 12:07:20;;;;;;;10.73;9.70;;;6.80;99.90;;;;;;5052201;28;20402;-63
2023/01/24 12:10:07;;;;;;;10.00;9.03;;;6.70;99.90;;;;;;5052694;28;20445;-63
2023/01/24 12:12:48;;;;;;;10.90;9.90;;;6.70;99.90;;;;;;5052650;28;20789;-64
2023/01/24 12:15:36;;;;;;;10.37;9.50;;;6.70;99.90;;;;;;5049125;28;20437;-64
2023/01/24 12:18:17;;;;;;;10.07;9.07;;;6.60;99.90;;;;;;5052006;28;20861;-64
2023/01/24 12:21:05;;;;;;;9.30;8.40;;;6.60;99.90;;;;;;5051474;28;20402;-63
2023/01/24 12:23:48;;;;;;;10.40;9.30;;;6.60;99.90;;;;;;5052469;28;20464;-63
2023/01/24 12:26:21;;;;;;;10.02;9.00;;;6.70;99.90;;;;;;5052148;28;20427;-64
2023/01/24 12:29:08;;;;;;;10.10;9.10;;;6.80;99.90;;;;;;5052633;28;20212;-63
2023/01/24 12:31:53;;;;;;;9.43;8.53;;;6.80;99.90;;;;;;5052526;28;20389;-64
2023/01/24 12:34:45;;;;;;;9.97;8.97;;;6.70;99.90;;;;;;5051606;28;20398;-63
2023/01/24 12:37:38;;;;;;;9.87;8.40;;;6.70;99.90;;;;;;5051856;28;20401;-65
2023/01/24 12:40:13;;;;;;;9.60;8.60;;;6.60;99.90;;;;;;5050101;28;20433;-64
2023/01/24 12:43:03;;;;;;;9.50;8.60;;;6.50;99.90;;;;;;5056981;28;20400;-64
2023/01/24 12:45:46;;;;;;;9.65;8.23;;;6.50;99.90;;;;;;5056732;28;20810;-64
2023/01/24 12:48:30;;;;;;;9.55;8.65;;;6.50;99.90;;;;;;5056232;28;20567;-64
2023/01/24 12:51:21;;;;;;;9.20;8.27;;;6.60;99.90;;;;;;5056137;28;20269;-64
2023/01/24 12:53:55;;;;;;;9.70;8.80;;;6.30;99.90;;;;;;5055287;28;20766;-64
2023/01/24 12:56:32;;;;;;;12.63;11.52;;;6.50;99.90;;;;;;5055376;28;20903;-65
2023/01/24 12:58:58;;;;;;;9.73;8.13;;;6.60;99.90;;;;;;5056285;28;20170;-64
2023/01/24 13:01:25;;;;;;;9.23;8.32;;;6.60;99.90;;;;;;5055377;28;20174;-64
2023/01/24 13:04:10;;;;;;;11.67;10.50;;;6.60;99.90;;;;;;5056280;28;20289;-65
2023/01/24 13:06:38;;;;;;;10.80;8.83;;;6.80;99.90;;;;;;5055744;28;20428;-64
2023/01/24 13:09:04;;;;;;;9.33;8.20;;;6.80;99.90;;;;;;5052579;28;20440;-64
2023/01/24 13:11:34;;;;;;;11.83;10.73;;;6.70;99.90;;;;;;5054814;28;20413;-64
2023/01/24 13:14:04;;;;;;;9.83;8.83;;;6.80;99.90;;;;;;5056014;28;20166;-64
2023/01/24 13:17:11;;;;;;;10.67;9.60;;;6.70;99.90;;;;;;5055834;28;20445;-64
2023/01/24 13:20:14;;;;;;;11.20;10.30;;;6.70;99.90;;;;;;5056173;28;20406;-64
2023/01/24 13:23:01;;;;;;;10.00;9.00;;;6.80;99.90;;;;;;5055841;28;20401;-64
2023/01/24 13:25:52;;;;;;;10.18;9.18;;;6.70;99.90;;;;;;5055704;28;20450;-64
2023/01/24 13:28:17;;;;;;;8.75;7.85;;;6.60;99.90;;;;;;5053790;28;20275;-64
2023/01/24 13:31:03;;;;;;;9.03;8.20;;;6.60;99.90;;;;;;5054124;28;20727;-64
2023/01/24 13:33:40;;;;;;;8.75;7.85;;;6.70;99.90;;;;;;5055644;28;20159;-64
2023/01/24 13:36:07;;;;;;;10.87;9.87;;;6.70;99.90;;;;;;5055298;28;20195;-64
2023/01/24 13:38:42;;;;;;;10.83;9.73;;;6.80;99.90;;;;;;5053207;28;20844;-64
2023/01/24 13:41:13;;;;;;;8.93;8.10;;;6.80;99.90;;;;;;5055219;28;20474;-64
2023/01/24 13:43:55;;;;;;;11.07;10.07;;;6.70;99.90;;;;;;5055380;28;20210;-62
2023/01/24 13:46:41;;;;;;;9.23;8.33;;;6.80;99.90;;;;;;5053612;28;20401;-63